Terminal Aerodrome Forecast
Issued by NWS

Home | Current Version | Previous Version | Text Only | Print | Product List | Glossary Off
Versions: 1 2 3 4 5 6 7 8 9 10 11 12 13 14 15 16 17 18 19 20 21 22 23 24 25 26 27 28 29 30 31 32 33 34 35 36 37 38 39 40 41 42 43 44 45 46 47 48 49 50

940
FTUS43 KLOT 230520
TAFGYY
TAF
KGYY 230520Z 2306/2406 13011KT 6SM BR OVC008
     FM230800 15009KT 2SM -RA BR OVC003
      TEMPO 2309/2313 1SM -RA BR
     FM231300 20007KT 5SM BR OVC006
     FM231600 24011KT P6SM OVC012
     FM231900 26012G18KT P6SM SCT015 OVC025
     FM240200 29006KT P6SM BKN060=

USA.gov is the U.S. government's official web portal to all federal, state and local government web resources and services.